»·PEaware :: N915TB KSBA-KSNA

N915TB :: KSBA-KSNA

FLIGHT INFORMATION

Flight Status: Arrived
Operator: Privately registered:
United States
More flights under this callsign
Pilot: Jake M. (20491)
Aircraft: SOCATA TBM-900
(TBM9)
More flights by this aircraft type
Origin: KSBA Santa Barbara Mun
United States
Destination: KSNA John Wayne-Orange Co
United States
More flights between these airports :: More routes between these airports
Route: +HENER VTU V208 SXC SLI
File this flight plan on PilotEdge
Remarks:
Altitude:
(Current/Filed)
16,000ft
Speed:
(Current/Filed)
285kts
Departed: 06-Nov-19 07:17 PM
Arrived: 06-Nov-19 08:01 PM
Distance/Time
Traveled:
108nm/0:44
Distance/Time
To Go:
Arrived

Flight Plot

Page will automatically refresh every two minutes.

Flight plan parsing failed; only flown route is shown


Map Options




Map Legend


Flown Route
Filed Route
Departure Airport
Arrival Airport
Navaid (VOR, NDB)
Fix

Horizontal Profiles

Position Reports

Time Latitude Longitude Heading Altitude Ground
Speed
06-Nov-19 19:02 34.421171 -119.836076 345 11ft 0kts
06-Nov-19 19:03 34.421171 -119.836076 345 11ft 0kts
06-Nov-19 19:04 34.421171 -119.836076 345 11ft 0kts
06-Nov-19 19:05 34.421171 -119.836076 345 11ft 0kts
06-Nov-19 19:06 34.421171 -119.836076 345 11ft 0kts
06-Nov-19 19:07 34.421171 -119.836076 345 11ft 0kts
06-Nov-19 19:08 34.421171 -119.836076 345 11ft 0kts
06-Nov-19 19:09 34.421171 -119.836076 345 11ft 0kts
06-Nov-19 19:10 34.421171 -119.836076 345 11ft 0kts
06-Nov-19 19:11 34.421171 -119.836076 345 11ft 0kts
06-Nov-19 19:12 34.421400 -119.836150 341 11ft 6kts
06-Nov-19 19:13 34.422660 -119.836953 279 12ft 1kts
06-Nov-19 19:14 34.425709 -119.838036 346 12ft 18kts
06-Nov-19 19:15 34.427099 -119.835255 355 10ft 0kts
06-Nov-19 19:16 34.427828 -119.838448 269 12ft 56kts
06-Nov-19 19:17 34.426944 -119.875710 270 1266ft 131kts
06-Nov-19 19:18 34.421819 -119.922773 231 3162ft 146kts
06-Nov-19 19:19 34.385236 -119.913622 152 5168ft 150kts
06-Nov-19 19:20 34.349853 -119.887550 131 7251ft 153kts
06-Nov-19 19:21 34.325940 -119.851786 128 8534ft 182kts
06-Nov-19 19:22 34.290140 -119.796949 127 9029ft 236kts
06-Nov-19 19:23 34.260934 -119.752148 127 9011ft 256kts
06-Nov-19 19:24 34.250504 -119.736166 127 9009ft 260kts
06-Nov-19 19:25 34.214927 -119.681708 127 9004ft 265kts
06-Nov-19 19:26 34.168424 -119.610671 127 9008ft 267kts
06-Nov-19 19:27 34.123603 -119.542336 127 9013ft 268kts
06-Nov-19 19:28 34.077234 -119.471783 127 9018ft 267kts
06-Nov-19 19:29 34.030822 -119.401297 127 9019ft 267kts
06-Nov-19 19:30 33.984544 -119.331183 128 9018ft 267kts
06-Nov-19 19:31 33.938833 -119.262022 128 9018ft 267kts
06-Nov-19 19:32 33.892494 -119.192060 128 9017ft 267kts
06-Nov-19 19:33 33.845887 -119.121834 128 9017ft 267kts
06-Nov-19 19:34 33.799302 -119.051776 128 9017ft 267kts
06-Nov-19 19:35 33.752657 -118.981764 128 9017ft 267kts
06-Nov-19 19:36 33.706035 -118.911921 128 9007ft 268kts
06-Nov-19 19:37 33.658953 -118.841521 128 8999ft 268kts
06-Nov-19 19:38 33.612807 -118.772658 128 9000ft 267kts
06-Nov-19 19:39 33.566117 -118.703117 128 9002ft 267kts
06-Nov-19 19:40 33.525825 -118.629939 86 8989ft 263kts
06-Nov-19 19:41 33.534257 -118.541395 81 8395ft 278kts
06-Nov-19 19:42 33.543660 -118.447295 81 7122ft 285kts
06-Nov-19 19:43 33.552700 -118.357285 81 6981ft 259kts
06-Nov-19 19:45 33.561112 -118.273289 81 7002ft 252kts
06-Nov-19 19:46 33.569724 -118.187694 81 6431ft 273kts
06-Nov-19 19:47 33.579292 -118.093774 81 5161ft 287kts
06-Nov-19 19:48 33.592703 -118.004005 50 4967ft 262kts
06-Nov-19 19:49 33.651252 -117.955441 31 4998ft 254kts
06-Nov-19 19:50 33.711944 -117.912100 27 4999ft 252kts
06-Nov-19 19:51 33.773142 -117.870668 27 4999ft 252kts
06-Nov-19 19:52 33.830029 -117.831962 27 4983ft 213kts
06-Nov-19 19:53 33.879109 -117.798242 27 4993ft 198kts
06-Nov-19 19:54 33.892164 -117.747984 154 4249ft 203kts
06-Nov-19 19:55 33.844035 -117.762080 208 3072ft 172kts
06-Nov-19 19:56 33.806361 -117.785952 207 2199ft 142kts
06-Nov-19 19:57 33.772286 -117.807653 207 2062ft 140kts
06-Nov-19 19:58 33.736070 -117.830589 206 1275ft 150kts
06-Nov-19 19:59 33.704093 -117.850731 206 582ft 114kts
06-Nov-19 20:00 33.678329 -117.867240 206 43ft 80kts
06-Nov-19 20:01 33.672053 -117.872500 255 49ft 4kts

Navigation Log

Ident Type
Flight plan parsing failed, navigation log unavailable